KPGV/PGV METAR and TAF weather

Enter ICAO airport designator
Station Type Date Time Source
KPGV METAR 2021/09/27 06:35 UTC NOAA

KPGV 270635Z AUTO 00000KT 5SM BR CLR 12/12 A3013 RMK AO2


Station Type Date Time Source
KPGV Decoded METAR 2021/09/27 06:35 UTC NOAA

Pitt-Greenville Airport, NC, United States (KPGV) 35-38N 077-24W
Sep 27, 2021 - 02:35 AM EDT / 2021.09.27 0635 UTC
Wind: Calm:0
Visibility: 5 mile(s):0
Sky conditions: clear
Weather: mist
Temperature: 53 F (12 C)
Dew Point: 53 F (12 C)
Relative Humidity: 100%
Pressure (altimeter): 30.13 in. Hg (1020 hPa)
ob: KPGV 270635Z AUTO 00000KT 5SM BR CLR 12/12 A3013 RMK AO2
cycle: 6

Station Type Date Time Source
KPGV TAF 2021/09/27 06:30 UTC NOAA

TAF KPGV 270529Z 2706/2806 00000KT 5SM BR SKC
TEMPO 2708/2712 1SM BR SCT005
FM271200 VRB05KT P6SM SKC
AMD LTD TO CLD VIS AND WIND

Example: see airport list